createdAt,value
2018-12-24T00:01:42.536Z,11.50
2018-12-24T00:04:33.953Z,11.60
2018-12-24T00:07:16.353Z,11.40
2018-12-24T00:10:07.695Z,11.50
2018-12-24T00:13:10.686Z,11.50
2018-12-24T00:16:02.045Z,11.70
2018-12-24T00:18:45.746Z,11.50
2018-12-24T00:21:37.097Z,11.50
2018-12-24T00:24:20.678Z,11.70
2018-12-24T00:27:03.157Z,11.60
2018-12-24T00:29:46.781Z,11.60
2018-12-24T00:32:38.160Z,11.50
2018-12-24T00:35:22.551Z,5.60
2018-12-24T00:38:06.155Z,11.70
2018-12-24T00:40:57.500Z,11.40
2018-12-24T00:43:41.360Z,11.60
2018-12-24T00:46:32.713Z,11.60
2018-12-24T00:49:17.045Z,11.80
2018-12-24T00:52:08.387Z,11.60
2018-12-24T00:54:52.509Z,11.60
2018-12-24T00:57:43.849Z,11.60
2018-12-24T01:00:27.574Z,11.50
2018-12-24T01:03:18.951Z,11.50
2018-12-24T01:06:03.052Z,11.50
2018-12-24T01:08:46.871Z,11.50
2018-12-24T01:11:38.244Z,11.50
2018-12-24T01:14:21.985Z,7.50
2018-12-24T01:17:13.427Z,11.60
2018-12-24T01:19:57.276Z,11.60
2018-12-24T01:22:48.710Z,11.40
2018-12-24T01:25:32.554Z,7.10
2018-12-24T01:28:16.246Z,11.60
2018-12-24T01:31:07.702Z,11.60
2018-12-24T01:33:51.695Z,8.30
2018-12-24T01:36:43.069Z,11.30
2018-12-24T01:39:46.375Z,6.10
2018-12-24T01:42:37.714Z,11.40
2018-12-24T01:45:21.696Z,11.30
2018-12-24T01:48:13.145Z,11.40
2018-12-24T01:50:57.259Z,11.30
2018-12-24T01:56:58.864Z,11.40
2018-12-24T01:59:42.723Z,6.90
2018-12-24T02:02:34.062Z,11.30
2018-12-24T02:05:18.280Z,9.00
2018-12-24T02:08:10.030Z,11.30
2018-12-24T02:10:54.592Z,11.40
2018-12-24T02:13:45.937Z,11.50
2018-12-24T02:16:29.648Z,11.50
2018-12-24T02:19:21.023Z,11.60
2018-12-24T02:22:12.664Z,11.50
2018-12-24T02:24:57.963Z,11.50
2018-12-24T02:27:41.944Z,11.50
2018-12-24T02:30:33.302Z,11.40
2018-12-24T02:33:17.241Z,10.10
2018-12-24T02:36:08.616Z,9.70
2018-12-24T02:38:52.417Z,4.20
2018-12-24T02:41:36.767Z,9.40
2018-12-24T02:44:28.213Z,9.30
2018-12-24T02:47:31.484Z,9.30
2018-12-24T02:50:22.817Z,9.30
2018-12-24T02:53:11.584Z,9.10
2018-12-24T02:56:02.965Z,9.10
2018-12-24T02:58:46.602Z,9.00
2018-12-24T03:01:37.979Z,8.90
2018-12-24T03:04:21.791Z,3.50
2018-12-24T03:07:13.159Z,8.90
2018-12-24T03:09:57.482Z,8.90
2018-12-24T03:12:48.837Z,9.00
2018-12-24T03:15:52.390Z,3.20
2018-12-24T03:18:43.893Z,8.80
2018-12-24T03:21:28.226Z,8.90
2018-12-24T03:24:19.548Z,8.80
2018-12-24T03:27:03.969Z,9.00
2018-12-24T03:29:55.300Z,8.60
2018-12-24T03:32:39.304Z,2.80
2018-12-24T03:35:30.634Z,8.10
2018-12-24T03:38:33.710Z,7.80
2018-12-24T03:41:25.056Z,7.80
2018-12-24T03:44:08.803Z,7.60
2018-12-24T03:47:00.140Z,7.60
2018-12-24T03:50:03.110Z,7.60
2018-12-24T03:52:54.452Z,7.40
2018-12-24T03:55:57.054Z,7.20
2018-12-24T03:58:48.424Z,7.00
2018-12-24T04:01:51.477Z,6.80
2018-12-24T04:04:42.857Z,6.90
2018-12-24T04:07:26.571Z,6.60
2018-12-24T04:10:17.927Z,6.50
2018-12-24T04:13:22.591Z,6.30
2018-12-24T04:16:13.612Z,6.20
2018-12-24T04:19:16.746Z,6.10
2018-12-24T04:22:08.085Z,6.20
2018-12-24T04:25:11.128Z,6.10
2018-12-24T04:27:55.550Z,6.00
2018-12-24T04:30:39.120Z,6.00
2018-12-24T04:33:30.443Z,5.90
2018-12-24T04:36:14.464Z,5.90
2018-12-24T04:39:06.644Z,5.90
2018-12-24T04:41:50.372Z,6.00
2018-12-24T04:44:41.707Z,2.50
2018-12-24T04:47:26.019Z,-0.30
2018-12-24T04:50:17.360Z,6.00
2018-12-24T04:53:06.580Z,6.10
2018-12-24T04:55:57.921Z,6.20
2018-12-24T04:59:00.934Z,0.30
2018-12-24T05:01:52.302Z,0.00
2018-12-24T05:04:36.389Z,6.00
2018-12-24T05:07:27.754Z,5.80
2018-12-24T05:10:12.246Z,5.70
2018-12-24T05:13:03.619Z,5.70
2018-12-24T05:15:47.323Z,0.30
2018-12-24T05:18:38.750Z,5.50
2018-12-24T05:21:41.893Z,5.50
2018-12-24T05:24:33.258Z,5.50
2018-12-24T05:27:36.436Z,5.20
2018-12-24T05:30:27.809Z,5.20
2018-12-24T05:33:11.567Z,5.40
2018-12-24T05:36:02.902Z,5.20
2018-12-24T05:38:47.213Z,5.30
2018-12-24T05:41:38.552Z,5.20
2018-12-24T05:44:41.903Z,5.10
2018-12-24T05:47:33.226Z,5.20
2018-12-24T05:50:36.357Z,5.10
2018-12-24T05:53:27.686Z,5.00
2018-12-24T05:56:31.151Z,4.90
2018-12-24T05:59:22.771Z,5.00
2018-12-24T06:02:06.438Z,5.00
2018-12-24T06:04:57.899Z,4.90
2018-12-24T06:07:41.803Z,2.00
2018-12-24T06:10:33.179Z,5.10
2018-12-24T06:13:35.785Z,4.90
2018-12-24T06:16:27.139Z,5.00
2018-12-24T06:19:15.368Z,5.00
2018-12-24T06:22:06.742Z,4.90
2018-12-24T06:24:50.744Z,-0.10
2018-12-24T06:27:34.403Z,4.80
2018-12-24T06:30:16.794Z,5.00
2018-12-24T06:33:00.811Z,4.80
2018-12-24T06:35:52.210Z,4.90
2018-12-24T06:38:36.077Z,4.80
2018-12-24T06:41:27.471Z,4.90
2018-12-24T06:44:11.133Z,4.80
2018-12-24T06:46:54.769Z,4.80
2018-12-24T06:49:46.092Z,4.90
2018-12-24T06:52:35.883Z,5.10
2018-12-24T06:55:27.230Z,4.90
2018-12-24T06:58:30.446Z,4.90
2018-12-24T07:01:21.823Z,5.00
2018-12-24T07:04:05.558Z,4.90
2018-12-24T07:06:57.659Z,4.90
2018-12-24T07:09:42.804Z,4.80
2018-12-24T07:12:35.158Z,4.90
2018-12-24T07:15:38.172Z,5.10
2018-12-24T07:18:30.150Z,5.20
2018-12-24T07:21:13.498Z,5.20
2018-12-24T07:24:05.061Z,5.10
2018-12-24T07:27:09.440Z,5.20
2018-12-24T07:30:01.793Z,5.20
2018-12-24T07:33:05.647Z,5.20
2018-12-24T07:35:58.063Z,5.30
2018-12-24T07:38:43.537Z,5.40
2018-12-24T07:41:35.773Z,5.60
2018-12-24T07:44:24.195Z,5.50
2018-12-24T07:47:13.293Z,5.40
2018-12-24T07:50:16.646Z,5.50
2018-12-24T07:53:08.871Z,5.40
2018-12-24T07:56:12.722Z,5.60
2018-12-24T07:59:05.115Z,5.50
2018-12-24T08:01:49.916Z,5.70
2018-12-24T08:04:41.912Z,5.70
2018-12-24T08:07:45.437Z,5.60
2018-12-24T08:10:37.838Z,5.50
2018-12-24T08:13:40.921Z,5.50
2018-12-24T08:16:33.400Z,5.30
2018-12-24T08:19:18.431Z,5.60
2018-12-24T08:25:38.668Z,5.60
2018-12-24T08:28:22.260Z,5.80
2018-12-24T08:31:07.524Z,5.30
2018-12-24T08:33:59.881Z,5.40
2018-12-24T08:36:51.658Z,5.60
2018-12-24T08:39:44.032Z,5.40
2018-12-24T08:42:29.432Z,0.00
2018-12-24T08:45:22.040Z,5.70
2018-12-24T08:48:06.507Z,5.50
2018-12-24T08:51:46.424Z,0.30
2018-12-24T08:54:29.720Z,5.60
2018-12-24T08:57:13.493Z,5.50
2018-12-24T09:00:04.593Z,5.70
2018-12-24T09:02:48.365Z,5.70
2018-12-24T09:05:39.279Z,5.70
2018-12-24T09:08:23.178Z,5.40
2018-12-24T09:11:14.118Z,5.50
2018-12-24T09:13:57.970Z,5.40
2018-12-24T09:16:48.878Z,5.50
2018-12-24T09:19:32.831Z,5.70
2018-12-24T09:22:23.734Z,5.90
2018-12-24T09:25:07.602Z,5.80
2018-12-24T09:27:51.443Z,6.20
2018-12-24T09:30:35.694Z,6.10
2018-12-24T09:33:20.771Z,6.00
2018-12-24T09:36:11.781Z,6.10
2018-12-24T09:38:59.601Z,6.00
2018-12-24T09:41:50.519Z,-0.20
2018-12-24T09:44:33.794Z,6.00
2018-12-24T09:47:24.681Z,5.90
2018-12-24T09:50:07.998Z,5.90
2018-12-24T09:52:59.026Z,5.90
2018-12-24T09:55:42.798Z,5.90
2018-12-24T09:58:26.368Z,5.90
2018-12-24T10:01:17.485Z,-0.50
2018-12-24T10:04:04.205Z,6.10
2018-12-24T10:10:06.149Z,5.70
2018-12-24T10:12:57.056Z,6.10
2018-12-24T10:15:41.096Z,6.20
2018-12-24T10:18:32.021Z,6.20
2018-12-24T10:21:15.552Z,6.20
2018-12-24T10:24:06.452Z,5.80
2018-12-24T10:26:49.799Z,6.30
2018-12-24T10:29:40.746Z,6.50
2018-12-24T10:32:24.781Z,6.70
2018-12-24T10:35:15.727Z,6.80
2018-12-24T10:37:59.330Z,6.80
2018-12-24T10:40:55.927Z,6.90
2018-12-24T10:43:39.573Z,7.00
2018-12-24T10:46:30.566Z,2.50
2018-12-24T10:49:14.117Z,7.20
2018-12-24T10:52:05.030Z,7.50
2018-12-24T10:54:49.172Z,7.80
2018-12-24T10:57:40.091Z,7.90
2018-12-24T11:00:23.826Z,7.90
2018-12-24T11:03:14.738Z,3.30
2018-12-24T11:05:58.694Z,8.00
2018-12-24T11:08:49.609Z,7.60
2018-12-24T11:11:33.582Z,7.70
2018-12-24T11:14:24.508Z,7.70
2018-12-24T11:17:27.022Z,7.70
2018-12-24T11:20:17.942Z,9.00
2018-12-24T11:23:20.134Z,8.60
2018-12-24T11:26:11.080Z,10.60
2018-12-24T11:28:54.906Z,13.10
2018-12-24T11:31:45.861Z,12.30
2018-12-24T11:34:29.068Z,10.70
2018-12-24T11:37:20.092Z,9.80
2018-12-24T11:40:03.465Z,9.20
2018-12-24T11:42:54.442Z,9.10
2018-12-24T11:45:37.912Z,8.90
2018-12-24T11:48:28.814Z,9.10
2018-12-24T11:51:12.782Z,10.60
2018-12-24T11:54:03.698Z,12.10
2018-12-24T11:56:47.574Z,12.40
2018-12-24T11:59:38.570Z,12.70
2018-12-24T12:02:22.235Z,13.00
2018-12-24T12:05:13.140Z,12.60
2018-12-24T12:07:57.106Z,10.80
2018-12-24T12:10:48.022Z,9.90
2018-12-24T12:13:31.569Z,9.50
2018-12-24T12:16:22.601Z,8.70
2018-12-24T12:19:06.113Z,8.20
2018-12-24T12:21:50.100Z,8.10
2018-12-24T12:24:41.017Z,7.80
2018-12-24T12:27:24.523Z,7.60
2018-12-24T12:30:15.431Z,7.70
2018-12-24T12:32:59.630Z,7.40
2018-12-24T12:35:50.534Z,7.00
2018-12-24T12:38:34.111Z,6.70
2018-12-24T12:41:25.471Z,6.60
2018-12-24T12:44:09.399Z,6.40
2018-12-24T12:47:00.336Z,6.40
2018-12-24T12:49:44.135Z,6.60
2018-12-24T12:52:28.519Z,6.50
2018-12-24T12:55:19.461Z,6.80
2018-12-24T12:58:03.454Z,6.50
2018-12-24T13:00:54.416Z,6.60
2018-12-24T13:03:38.091Z,6.10
2018-12-24T13:06:30.154Z,5.80
2018-12-24T13:09:14.399Z,5.90
2018-12-24T13:12:05.498Z,5.90
2018-12-24T13:14:49.800Z,5.90
2018-12-24T13:17:41.488Z,5.80
2018-12-24T13:20:25.831Z,5.80
2018-12-24T13:23:16.827Z,5.80
2018-12-24T13:26:01.168Z,5.90
2018-12-24T13:28:45.286Z,5.90
2018-12-24T13:31:36.198Z,6.10
2018-12-24T13:34:20.595Z,6.10
2018-12-24T13:37:11.508Z,5.80
2018-12-24T13:39:54.748Z,6.10
2018-12-24T13:42:45.669Z,6.10
2018-12-24T13:45:29.433Z,6.20
2018-12-24T13:48:20.392Z,6.50
2018-12-24T13:51:03.812Z,6.60
2018-12-24T13:53:47.260Z,6.70
2018-12-24T13:56:38.175Z,6.40
2018-12-24T13:59:23.595Z,6.20
2018-12-24T14:02:16.549Z,6.20
2018-12-24T14:05:09.194Z,6.20
2018-12-24T14:08:00.345Z,-0.50
2018-12-24T14:10:43.775Z,6.20
2018-12-24T14:13:34.682Z,6.20
2018-12-24T14:16:19.776Z,6.10
2018-12-24T14:19:10.678Z,0.10
2018-12-24T14:21:53.985Z,5.90
2018-12-24T14:24:44.929Z,6.00
2018-12-24T14:27:28.683Z,5.90
2018-12-24T14:30:19.632Z,5.80
2018-12-24T14:33:22.334Z,5.80
2018-12-24T14:36:13.285Z,5.70
2018-12-24T14:38:57.027Z,5.50
2018-12-24T14:41:40.673Z,-0.70
2018-12-24T14:44:24.725Z,5.60
2018-12-24T14:47:08.290Z,5.60
2018-12-24T14:49:59.197Z,5.60
2018-12-24T14:52:42.447Z,5.80
2018-12-24T14:55:33.366Z,5.70
2018-12-24T14:58:17.147Z,5.50
2018-12-24T15:01:08.061Z,5.50
2018-12-24T15:03:51.291Z,5.80
2018-12-24T15:06:42.201Z,5.70
2018-12-24T15:09:25.763Z,6.00
2018-12-24T15:12:16.681Z,5.90
2018-12-24T15:15:00.712Z,6.00
2018-12-24T15:17:51.623Z,5.80
2018-12-24T15:20:35.642Z,5.60
2018-12-24T15:23:26.584Z,5.60
2018-12-24T15:26:10.435Z,5.50
2018-12-24T15:28:53.880Z,5.50
2018-12-24T15:31:44.785Z,5.50
2018-12-24T15:34:28.906Z,5.50
2018-12-24T15:37:19.824Z,5.40
2018-12-24T15:40:03.097Z,5.50
2018-12-24T15:42:47.196Z,5.40
2018-12-24T15:45:38.190Z,5.60
2018-12-24T15:48:22.310Z,5.50
2018-12-24T15:51:13.260Z,-0.40
2018-12-24T15:53:57.210Z,5.30
2018-12-24T15:56:48.134Z,0.10
2018-12-24T15:59:37.016Z,5.30
2018-12-24T16:02:27.914Z,5.20
2018-12-24T16:05:11.468Z,3.60
2018-12-24T16:08:02.376Z,5.60
2018-12-24T16:10:46.436Z,5.60
2018-12-24T16:13:37.379Z,5.60
2018-12-24T16:16:21.315Z,5.80
2018-12-24T16:19:12.252Z,5.80
2018-12-24T16:21:55.999Z,5.60
2018-12-24T16:24:46.933Z,5.40
2018-12-24T16:27:30.491Z,5.50
2018-12-24T16:30:21.423Z,5.50
2018-12-24T16:33:05.239Z,5.30
2018-12-24T16:35:56.243Z,5.30
2018-12-24T16:38:28.183Z,5.50
2018-12-24T16:41:19.088Z,5.50
2018-12-24T16:44:02.899Z,-0.30
2018-12-24T16:46:59.315Z,5.90
2018-12-24T16:49:58.622Z,5.80
2018-12-24T16:52:49.625Z,-0.60
2018-12-24T16:55:33.413Z,5.70
2018-12-24T16:58:24.388Z,0.00
2018-12-24T17:01:08.202Z,5.70
2018-12-24T17:03:59.135Z,5.80
2018-12-24T17:06:42.914Z,5.90
2018-12-24T17:09:33.853Z,5.70
2018-12-24T17:12:17.873Z,5.80
2018-12-24T17:15:08.816Z,5.60
2018-12-24T17:17:52.616Z,2.40
2018-12-24T17:20:43.547Z,5.50
2018-12-24T17:23:27.518Z,5.40
2018-12-24T17:26:18.428Z,5.30
2018-12-24T17:29:21.410Z,5.40
2018-12-24T17:32:12.312Z,5.10
2018-12-24T17:34:56.171Z,5.20
2018-12-24T17:37:47.092Z,4.90
2018-12-24T17:40:31.120Z,4.80
2018-12-24T17:43:14.673Z,4.80
2018-12-24T17:45:57.913Z,4.90
2018-12-24T17:48:48.819Z,4.80
2018-12-24T17:51:37.899Z,4.60
2018-12-24T17:54:28.844Z,-1.90
2018-12-24T17:57:12.547Z,4.50
2018-12-24T18:00:03.562Z,4.60
2018-12-24T18:02:46.829Z,4.60
2018-12-24T18:05:37.891Z,4.60
2018-12-24T18:08:21.899Z,4.70
2018-12-24T18:11:12.839Z,4.90
2018-12-24T18:13:56.650Z,4.80
2018-12-24T18:16:58.375Z,4.90
2018-12-24T18:19:50.711Z,5.10
2018-12-24T18:22:35.828Z,5.00
2018-12-24T18:25:26.853Z,4.90
2018-12-24T18:28:10.562Z,5.00
2018-12-24T18:31:01.508Z,4.90
2018-12-24T18:33:44.693Z,4.90
2018-12-24T18:36:35.645Z,4.80
2018-12-24T18:39:19.607Z,4.70
2018-12-24T18:42:10.585Z,4.70
2018-12-24T18:44:54.436Z,4.80
2018-12-24T18:47:45.380Z,4.70
2018-12-24T18:50:29.360Z,4.80
2018-12-24T18:53:20.306Z,4.90
2018-12-24T18:56:21.251Z,4.70
2018-12-24T18:59:12.171Z,4.70
2018-12-24T19:01:56.123Z,4.90
2018-12-24T19:04:47.107Z,4.80
2018-12-24T19:07:30.875Z,-1.20
2018-12-24T19:10:22.183Z,5.00
2018-12-24T19:13:06.048Z,4.90
2018-12-24T19:15:57.011Z,-0.80
2018-12-24T19:18:41.123Z,5.00
2018-12-24T19:21:32.043Z,4.80
2018-12-24T19:24:20.153Z,4.70
2018-12-24T19:27:11.097Z,4.80
2018-12-24T19:29:54.887Z,4.90
2018-12-24T19:32:45.845Z,5.10
2018-12-24T19:35:29.847Z,4.70
2018-12-24T19:38:01.819Z,4.70
2018-12-24T19:40:45.163Z,4.70
2018-12-24T19:43:28.539Z,4.60
2018-12-24T19:46:00.534Z,4.90
2018-12-24T19:48:44.469Z,5.00
2018-12-24T19:51:35.377Z,4.10
2018-12-24T19:54:19.351Z,-1.30
2018-12-24T19:57:10.536Z,5.00
2018-12-24T19:59:54.247Z,4.90
2018-12-24T20:02:45.178Z,5.00
2018-12-24T20:05:28.989Z,-1.60
2018-12-24T20:08:12.218Z,4.90
2018-12-24T20:11:03.130Z,4.90
2018-12-24T20:13:46.478Z,4.70
2018-12-24T20:16:30.418Z,2.20
2018-12-24T20:19:21.367Z,5.00
2018-12-24T20:22:05.076Z,4.70
2018-12-24T20:24:56.001Z,0.60
2018-12-24T20:27:39.896Z,4.90
2018-12-24T20:30:30.845Z,4.80
2018-12-24T20:33:14.466Z,4.90
2018-12-24T20:36:05.414Z,4.90
2018-12-24T20:38:49.446Z,4.90
2018-12-24T20:41:40.388Z,-2.10
2018-12-24T20:44:24.876Z,5.00
2018-12-24T20:47:15.873Z,5.00
2018-12-24T20:49:59.745Z,4.90
2018-12-24T20:52:50.649Z,4.10
2018-12-24T20:55:34.620Z,5.10
2018-12-24T20:58:26.536Z,5.00
2018-12-24T21:01:10.562Z,-1.90
2018-12-24T21:04:02.645Z,4.90
2018-12-24T21:06:46.307Z,4.60
2018-12-24T21:09:37.860Z,4.60
2018-12-24T21:12:22.814Z,4.90
2018-12-24T21:15:15.476Z,4.80
2018-12-24T21:17:59.261Z,4.80
2018-12-24T21:20:51.066Z,4.80
2018-12-24T21:23:33.975Z,-1.50
2018-12-24T21:26:25.962Z,5.00
2018-12-24T21:29:09.579Z,5.10
2018-12-24T21:32:01.659Z,5.00
2018-12-24T21:34:45.649Z,5.20
2018-12-24T21:37:29.599Z,5.20
2018-12-24T21:40:21.618Z,5.20
2018-12-24T21:43:05.636Z,5.20
2018-12-24T21:45:56.984Z,-0.80
2018-12-24T21:48:40.536Z,5.20
2018-12-24T21:51:33.308Z,5.40
2018-12-24T21:54:18.211Z,5.70
2018-12-24T21:57:09.557Z,5.50
2018-12-24T21:59:54.200Z,-0.60
2018-12-24T22:02:45.185Z,5.30
2018-12-24T22:05:28.991Z,5.20
2018-12-24T22:08:19.952Z,-1.10
2018-12-24T22:11:04.860Z,5.10
2018-12-24T22:13:48.848Z,5.00
2018-12-24T22:16:33.997Z,4.90
2018-12-24T22:19:25.102Z,5.00
2018-12-24T22:22:09.093Z,4.80
2018-12-24T22:25:02.625Z,4.90
2018-12-24T22:27:46.288Z,-2.20
2018-12-24T22:34:07.413Z,4.40
2018-12-24T22:36:58.427Z,4.30
2018-12-24T22:39:42.359Z,4.30
2018-12-24T22:42:34.465Z,0.10
2018-12-24T22:45:24.613Z,4.00
2018-12-24T22:48:16.557Z,3.80
2018-12-24T22:51:00.185Z,3.70
2018-12-24T22:53:51.188Z,3.80
2018-12-24T22:56:34.971Z,3.90
2018-12-24T22:59:25.932Z,4.10
2018-12-24T23:02:10.010Z,4.20
2018-12-24T23:05:01.091Z,4.20
2018-12-24T23:07:44.471Z,4.30
2018-12-24T23:10:35.421Z,4.10
2018-12-24T23:13:19.639Z,4.20
2018-12-24T23:16:11.914Z,4.30
2018-12-24T23:18:55.816Z,4.30
2018-12-24T23:21:48.083Z,4.40
2018-12-24T23:24:32.650Z,4.60
2018-12-24T23:27:23.636Z,4.60
2018-12-24T23:30:08.700Z,4.60
2018-12-24T23:33:00.791Z,4.60
2018-12-24T23:35:45.038Z,4.70
2018-12-24T23:38:56.516Z,4.70
2018-12-24T23:41:41.471Z,4.60
2018-12-24T23:44:33.558Z,-0.70
2018-12-24T23:47:17.220Z,4.90
2018-12-24T23:50:08.177Z,5.00
2018-12-24T23:52:53.048Z,4.90
2018-12-24T23:55:45.002Z,4.90
2018-12-24T23:58:48.543Z,4.80
